Neuhardenberg, Germany

12:45 PM CET on January 29, 2015 (GMT +0100)
Muellrose - Schlaubetal | Change Station
CLOSE
Current Station
Personal Weather Station
Location: Müllrose, BRANDENBURG
Elevation: 138 ft
Nearby Weather Stations

Elev 138 ft 52.23 °N, 14.41 °E | Updated 11 minutes ago

Mostly Cloudy
Mostly Cloudy
38.1 °F
Feels Like 38 °F
N
2.7
Wind Variable Wind from SSW
Gusts 7.0 mph

Today
High -- | Low -- °F
--% Chance of Precip.
Yesterday
High -- | Low -- °F
Precip. -- in
7:49 AM 4:44 PM
Waxing Gibbous, 73% visible
Pressure 29.21 in
Visibility 6.2 miles
Clouds Few 3100 ft
Mostly Cloudy 5000 ft
Windchill 38 °F
Dew Point 29 °F
Humidity 70%
Rainfall 0.02 in
Snow Depth Not available.
UV 1 out of 12
Pollen Not available.
Air Quality Not available.
Flu Activity Not available.
METAR EDDB 291120Z 21018KT 9999 FEW031 BKN050 04/M02 Q0989 TEMPO 21015G30KT

More Conditions Fewer Conditions

Pressure 29.21 in
Visibility 6.2 miles
Clouds Few 3100 ft
Mostly Cloudy 5000 ft
Windchill 38 °F
Dew Point 29 °F
Humidity 70%
Rainfall 0.02 in
Snow Depth Not available.
UV 1 out of 12
Pollen Not available.
Air Quality Not available.
Flu Activity Not available.
METAR EDDB 291120Z 21018KT 9999 FEW031 BKN050 04/M02 Q0989 TEMPO 21015G30KT

More Conditions Fewer Conditions

10-Day Weather Forecast

Almanac

Astronomy

Jan. 29, 2015 Rise Set
Actual Time
Civil Twilight
Nautical Twilight
Astronomical Twilight
Moon
Length of Visible Light
Length of Day
Tomorrow will be .
, % of the Moon is Illuminated

Today's Extremes

Country Highs Country Lows

Community

WunderPhotos

Upload Photos

1,791,408 photos uploaded!

WunderBlogs® & News

Nearby

Air Quality

  Air Quality AQ Index Pollutant
Not available.

Snow Depth

Station Depth Elevation

Earthquake Activity

City Distance Mag. Time & Date
Minimum magnitude displayed is 2.5.

Coastal Water Temperatures

Place Temperature

Nearby Weather Stations